createdAt,value
2023-05-18T00:01:24.235Z,4.38
2023-05-18T00:05:03.528Z,3.90
2023-05-18T00:08:09.874Z,3.97
2023-05-18T00:11:14.798Z,5.03
2023-05-18T00:14:19.243Z,4.18
2023-05-18T00:17:23.209Z,3.97
2023-05-18T00:20:27.689Z,4.60
2023-05-18T00:23:34.962Z,4.28
2023-05-18T00:26:40.674Z,4.60
2023-05-18T00:29:44.530Z,4.00
2023-05-18T00:32:52.689Z,10.40
2023-05-18T00:35:58.255Z,3.75
2023-05-18T00:39:02.805Z,4.47
2023-05-18T00:42:07.144Z,4.35
2023-05-18T00:45:11.889Z,6.03
2023-05-18T00:48:18.062Z,4.65
2023-05-18T00:51:24.362Z,5.03
2023-05-18T00:54:31.470Z,4.50
2023-05-18T00:57:39.263Z,4.20
2023-05-18T01:00:43.526Z,4.10
2023-05-18T01:03:47.787Z,5.93
2023-05-18T01:06:57.353Z,3.85
2023-05-18T01:10:02.152Z,3.30
2023-05-18T01:13:16.523Z,3.55
2023-05-18T01:16:27.818Z,3.85
2023-05-18T01:19:38.433Z,3.72
2023-05-18T01:22:57.534Z,3.97
2023-05-18T01:26:16.027Z,4.43
2023-05-18T01:29:22.166Z,6.10
2023-05-18T01:32:26.736Z,5.97
2023-05-18T01:35:30.947Z,5.10
2023-05-18T01:38:36.344Z,4.63
2023-05-18T01:44:54.718Z,5.22
2023-05-18T01:48:02.460Z,5.35
2023-05-18T01:51:10.533Z,4.90
2023-05-18T01:54:18.736Z,4.18
2023-05-18T01:57:27.183Z,5.18
2023-05-18T02:00:31.756Z,3.78
2023-05-18T02:03:36.586Z,3.70
2023-05-18T02:06:41.551Z,3.42
2023-05-18T02:09:45.852Z,3.40
2023-05-18T02:12:53.302Z,3.27
2023-05-18T02:15:58.914Z,3.35
2023-05-18T02:19:04.183Z,3.25
2023-05-18T02:22:09.072Z,3.35
2023-05-18T02:25:13.353Z,3.20
2023-05-18T02:28:17.476Z,3.33
2023-05-18T02:31:22.783Z,3.47
2023-05-18T02:34:28.380Z,3.05
2023-05-18T02:37:35.368Z,2.95
2023-05-18T02:43:43.696Z,2.72
2023-05-18T02:46:47.755Z,3.60
2023-05-18T02:49:52.510Z,2.95
2023-05-18T02:52:56.740Z,2.67
2023-05-18T02:56:04.199Z,2.10
2023-05-18T02:59:18.677Z,2.90
2023-05-18T03:02:24.761Z,3.53
2023-05-18T03:05:29.230Z,2.60
2023-05-18T03:08:33.633Z,2.70
2023-05-18T03:11:37.684Z,2.77
2023-05-18T03:14:42.725Z,2.70
2023-05-18T03:17:47.432Z,2.40
2023-05-18T03:20:52.977Z,2.40
2023-05-18T03:27:01.645Z,1.88
2023-05-18T03:30:06.480Z,2.15
2023-05-18T03:33:10.629Z,2.10
2023-05-18T03:42:00.512Z,2.80
2023-05-18T03:45:07.161Z,2.33
2023-05-18T03:48:11.177Z,2.40
2023-05-18T03:51:15.224Z,2.50
2023-05-18T03:54:23.290Z,2.75
2023-05-18T03:57:29.283Z,2.70
2023-05-18T04:03:37.027Z,2.60
2023-05-18T04:06:41.655Z,2.30
2023-05-18T04:09:46.405Z,2.28
2023-05-18T04:12:50.813Z,2.67
2023-05-18T04:15:54.988Z,2.15
2023-05-18T04:18:58.782Z,2.42
2023-05-18T04:22:06.306Z,2.75
2023-05-18T04:25:13.938Z,2.60
2023-05-18T04:28:18.622Z,2.58
2023-05-18T04:31:22.756Z,2.53
2023-05-18T04:34:27.327Z,2.27
2023-05-18T04:37:31.478Z,2.38
2023-05-18T04:40:38.920Z,2.20
2023-05-18T04:43:43.492Z,2.35
2023-05-18T04:46:48.146Z,2.03
2023-05-18T04:49:55.073Z,2.70
2023-05-18T04:53:03.083Z,1.98
2023-05-18T04:56:07.525Z,2.55
2023-05-18T04:59:11.726Z,2.20
2023-05-18T05:02:15.657Z,2.15
2023-05-18T05:05:20.030Z,1.88
2023-05-18T05:08:24.025Z,1.95
2023-05-18T05:11:28.030Z,2.58
2023-05-18T05:14:31.978Z,1.88
2023-05-18T05:17:36.425Z,1.75
2023-05-18T05:20:44.181Z,1.60
2023-05-18T05:23:48.341Z,1.92
2023-05-18T05:26:52.273Z,2.42
2023-05-18T05:29:57.207Z,2.28
2023-05-18T05:33:01.460Z,2.45
2023-05-18T05:36:06.585Z,3.00
2023-05-18T05:42:16.098Z,2.80
2023-05-18T05:45:20.703Z,2.40
2023-05-18T05:48:27.481Z,2.13
2023-05-18T05:51:31.588Z,1.77
2023-05-18T05:54:35.898Z,2.20
2023-05-18T05:57:43.535Z,3.00
2023-05-18T06:00:47.758Z,2.25
2023-05-18T06:03:52.828Z,2.43
2023-05-18T06:06:56.994Z,2.20
2023-05-18T06:10:01.162Z,2.30
2023-05-18T06:13:08.035Z,2.25
2023-05-18T06:16:19.190Z,1.98
2023-05-18T06:19:23.888Z,1.90
2023-05-18T06:26:05.143Z,2.53
2023-05-18T06:29:09.859Z,1.80
2023-05-18T06:32:32.731Z,1.85
2023-05-18T06:38:41.096Z,1.98
2023-05-18T06:41:48.329Z,2.35
2023-05-18T06:44:59.728Z,2.28
2023-05-18T06:48:29.050Z,2.33
2023-05-18T06:51:34.044Z,4.55
2023-05-18T06:54:39.260Z,1.58
2023-05-18T06:57:43.563Z,1.83
2023-05-18T07:00:49.331Z,19.15
2023-05-18T07:03:53.922Z,6.43
2023-05-18T07:06:57.875Z,2.35
2023-05-18T07:10:02.380Z,3.08
2023-05-18T07:13:07.878Z,2.40
2023-05-18T07:16:12.313Z,2.67
2023-05-18T07:19:16.352Z,2.20
2023-05-18T07:22:22.135Z,2.63
2023-05-18T07:25:27.017Z,1.90
2023-05-18T07:28:33.436Z,2.67
2023-05-18T07:31:41.441Z,2.40
2023-05-18T07:34:47.566Z,2.20
2023-05-18T07:37:52.756Z,3.40
2023-05-18T07:41:01.056Z,2.38
2023-05-18T07:44:05.482Z,2.60
2023-05-18T07:47:10.004Z,2.92
2023-05-18T07:50:14.206Z,2.05
2023-05-18T07:53:18.240Z,2.00
2023-05-18T07:56:23.355Z,2.90
2023-05-18T07:59:27.406Z,2.20
2023-05-18T08:02:33.619Z,2.30
2023-05-18T08:05:38.460Z,2.25
2023-05-18T08:08:42.678Z,2.97
2023-05-18T08:11:46.786Z,1.83
2023-05-18T08:14:50.822Z,2.05
2023-05-18T08:17:55.878Z,2.22
2023-05-18T08:21:00.037Z,2.40
2023-05-18T08:24:05.278Z,2.45
2023-05-18T08:30:15.152Z,2.80
2023-05-18T08:33:19.165Z,2.57
2023-05-18T08:36:23.212Z,2.65
2023-05-18T08:39:27.357Z,2.60
2023-05-18T08:42:46.044Z,2.67
2023-05-18T08:46:06.083Z,3.72
2023-05-18T08:49:11.807Z,3.35
2023-05-18T08:52:20.536Z,3.53
2023-05-18T08:55:25.405Z,4.55
2023-05-18T08:58:49.125Z,2.92
2023-05-18T09:01:55.732Z,2.78
2023-05-18T09:05:00.642Z,2.90
2023-05-18T09:08:11.284Z,13.85
2023-05-18T09:11:17.552Z,5.60
2023-05-18T09:14:26.583Z,3.00
2023-05-18T09:17:31.284Z,4.80
2023-05-18T09:20:36.097Z,3.03
2023-05-18T09:23:43.465Z,3.20
2023-05-18T09:26:47.989Z,3.00
2023-05-18T09:29:56.692Z,6.07
2023-05-18T09:33:00.780Z,6.47
2023-05-18T09:36:09.774Z,9.88
2023-05-18T09:39:14.035Z,10.45
2023-05-18T09:42:18.124Z,14.00
2023-05-18T09:45:29.929Z,31.15
2023-05-18T09:48:36.068Z,13.18
2023-05-18T09:51:41.248Z,7.40
2023-05-18T09:57:51.973Z,5.00
2023-05-18T10:01:02.581Z,5.05
2023-05-18T10:04:07.294Z,4.30
2023-05-18T10:07:16.755Z,4.40
2023-05-18T10:10:23.456Z,4.68
2023-05-18T10:13:29.911Z,4.57
2023-05-18T10:16:34.145Z,4.25
2023-05-18T10:19:39.350Z,4.30
2023-05-18T10:22:46.283Z,4.97
2023-05-18T10:25:52.001Z,3.67
2023-05-18T10:28:57.969Z,5.10
2023-05-18T10:32:07.515Z,5.45
2023-05-18T10:35:12.724Z,5.72
2023-05-18T10:38:28.299Z,6.15
2023-05-18T10:44:41.178Z,7.15
2023-05-18T10:47:45.844Z,10.75
2023-05-18T10:50:54.502Z,11.50
2023-05-18T10:54:16.848Z,11.18
2023-05-18T10:57:25.307Z,10.73
2023-05-18T11:00:29.826Z,9.55
2023-05-18T11:03:34.767Z,9.97
2023-05-18T11:06:39.150Z,9.85
2023-05-18T11:09:46.270Z,9.13
2023-05-18T11:12:50.284Z,10.23
2023-05-18T11:16:16.386Z,9.60
2023-05-18T11:22:48.041Z,16.40
2023-05-18T11:25:55.275Z,8.63
2023-05-18T11:29:00.291Z,15.90
2023-05-18T11:32:05.126Z,13.70
2023-05-18T11:35:25.121Z,10.93
2023-05-18T11:39:05.868Z,12.23
2023-05-18T11:42:15.438Z,11.57
2023-05-18T11:45:19.122Z,10.25
2023-05-18T11:48:24.425Z,14.05
2023-05-18T11:51:30.254Z,16.98
2023-05-18T11:55:02.730Z,13.45
2023-05-18T11:58:10.891Z,15.70
2023-05-18T12:01:15.384Z,16.17
2023-05-18T12:04:21.115Z,14.00
2023-05-18T12:07:35.308Z,15.07
2023-05-18T12:10:40.573Z,14.07
2023-05-18T12:13:45.064Z,14.93
2023-05-18T12:16:50.542Z,12.95
2023-05-18T12:19:57.305Z,11.88
2023-05-18T12:23:02.804Z,11.60
2023-05-18T12:26:08.211Z,11.57
2023-05-18T12:29:13.384Z,11.32
2023-05-18T12:32:18.181Z,12.05
2023-05-18T12:35:29.516Z,12.80
2023-05-18T12:38:35.296Z,12.52
2023-05-18T12:44:46.001Z,14.13
2023-05-18T12:47:55.490Z,13.98
2023-05-18T12:50:59.782Z,12.88
2023-05-18T12:54:07.846Z,13.52
2023-05-18T12:57:13.339Z,12.40
2023-05-18T13:00:21.215Z,12.13
2023-05-18T13:03:25.257Z,11.93
2023-05-18T13:06:29.412Z,10.82
2023-05-18T13:09:33.264Z,11.73
2023-05-18T13:12:42.203Z,9.93
2023-05-18T13:15:47.690Z,10.35
2023-05-18T13:22:01.846Z,9.30
2023-05-18T13:25:06.369Z,9.20
2023-05-18T13:28:12.138Z,9.95
2023-05-18T13:34:19.763Z,7.40
2023-05-18T13:37:23.828Z,8.90
2023-05-18T13:40:28.433Z,8.63
2023-05-18T13:43:33.694Z,9.37
2023-05-18T13:46:38.531Z,8.95
2023-05-18T13:49:42.313Z,7.60
2023-05-18T13:52:47.393Z,7.75
2023-05-18T13:55:51.687Z,6.72
2023-05-18T13:58:55.573Z,6.93
2023-05-18T14:01:59.603Z,7.25
2023-05-18T14:05:04.472Z,7.00
2023-05-18T14:08:08.385Z,8.30
2023-05-18T14:11:12.255Z,8.20
2023-05-18T14:14:16.215Z,9.85
2023-05-18T14:17:20.229Z,9.68
2023-05-18T14:20:24.070Z,11.32
2023-05-18T14:23:28.251Z,10.57
2023-05-18T14:26:32.424Z,7.90
2023-05-18T14:29:36.318Z,7.65
2023-05-18T14:32:40.359Z,7.28
2023-05-18T14:35:44.193Z,7.95
2023-05-18T14:38:47.987Z,7.97
2023-05-18T14:41:52.339Z,7.72
2023-05-18T14:44:56.618Z,8.05
2023-05-18T14:48:00.441Z,7.63
2023-05-18T14:51:04.510Z,7.53
2023-05-18T14:54:08.439Z,6.60
2023-05-18T14:57:12.133Z,8.40
2023-05-18T15:00:16.327Z,7.72
2023-05-18T15:03:20.347Z,7.93
2023-05-18T15:06:28.871Z,6.93
2023-05-18T15:09:33.085Z,7.47
2023-05-18T15:12:36.977Z,7.97
2023-05-18T15:15:40.677Z,7.65
2023-05-18T15:18:44.724Z,6.75
2023-05-18T15:21:49.403Z,6.90
2023-05-18T15:24:53.527Z,9.65
2023-05-18T15:27:57.603Z,7.97
2023-05-18T15:31:01.339Z,7.75
2023-05-18T15:34:05.350Z,6.40
2023-05-18T15:37:09.302Z,6.20
2023-05-18T15:40:22.179Z,5.95
2023-05-18T15:43:29.156Z,6.75
2023-05-18T15:46:36.381Z,6.43
2023-05-18T15:49:45.898Z,7.03
2023-05-18T15:52:52.909Z,6.72
2023-05-18T15:55:59.291Z,6.68
2023-05-18T15:59:04.169Z,7.53
2023-05-18T16:02:11.251Z,6.78
2023-05-18T16:05:14.969Z,5.95
2023-05-18T16:08:18.935Z,6.03
2023-05-18T16:11:25.462Z,5.68
2023-05-18T16:14:29.291Z,5.97
2023-05-18T16:17:32.925Z,6.30
2023-05-18T16:20:36.817Z,6.15
2023-05-18T16:23:40.696Z,5.78
2023-05-18T16:26:45.024Z,6.68
2023-05-18T16:29:49.580Z,6.50
2023-05-18T16:32:55.492Z,7.13
2023-05-18T16:39:03.851Z,6.15
2023-05-18T16:42:08.397Z,5.40
2023-05-18T16:45:12.320Z,6.25
2023-05-18T16:48:16.390Z,6.13
2023-05-18T16:51:20.318Z,6.15
2023-05-18T16:54:24.207Z,5.55
2023-05-18T16:57:28.464Z,5.68
2023-05-18T17:00:33.379Z,6.32
2023-05-18T17:03:38.916Z,5.80
2023-05-18T17:06:45.802Z,5.75
2023-05-18T17:09:49.446Z,6.20
2023-05-18T17:12:53.385Z,5.85
2023-05-18T17:15:57.362Z,5.72
2023-05-18T17:19:07.118Z,6.45
2023-05-18T17:22:11.784Z,6.50
2023-05-18T17:25:19.365Z,4.90
2023-05-18T17:28:29.427Z,5.38
2023-05-18T17:31:35.793Z,5.55
2023-05-18T17:34:41.146Z,5.32
2023-05-18T17:37:45.025Z,5.10
2023-05-18T17:40:49.227Z,5.03
2023-05-18T17:43:53.172Z,5.38
2023-05-18T17:46:58.119Z,5.75
2023-05-18T17:50:02.499Z,4.80
2023-05-18T17:53:06.958Z,4.47
2023-05-18T17:56:15.119Z,5.30
2023-05-18T17:59:19.078Z,4.72
2023-05-18T18:02:25.936Z,4.65
2023-05-18T18:05:30.516Z,5.18
2023-05-18T18:11:39.310Z,4.72
2023-05-18T18:14:43.370Z,4.38
2023-05-18T18:17:47.396Z,4.90
2023-05-18T18:20:51.820Z,4.57
2023-05-18T18:23:58.267Z,4.65
2023-05-18T18:27:05.125Z,4.93
2023-05-18T18:30:09.812Z,5.88
2023-05-18T18:33:17.151Z,4.45
2023-05-18T18:36:22.798Z,5.22
2023-05-18T18:39:29.091Z,5.05
2023-05-18T18:42:33.830Z,5.15
2023-05-18T18:45:37.940Z,5.50
2023-05-18T18:48:42.045Z,4.80
2023-05-18T18:51:48.764Z,4.95
2023-05-18T18:54:53.329Z,4.63
2023-05-18T18:58:00.345Z,5.20
2023-05-18T19:01:05.208Z,5.57
2023-05-18T19:04:09.258Z,6.30
2023-05-18T19:07:13.180Z,5.65
2023-05-18T19:10:17.599Z,5.57
2023-05-18T19:13:24.862Z,5.20
2023-05-18T19:16:29.411Z,5.55
2023-05-18T19:19:33.836Z,5.53
2023-05-18T19:22:38.144Z,4.90
2023-05-18T19:25:42.352Z,5.13
2023-05-18T19:28:46.816Z,5.45
2023-05-18T19:31:50.998Z,5.38
2023-05-18T19:34:55.348Z,5.40
2023-05-18T19:37:59.794Z,4.90
2023-05-18T19:41:03.846Z,5.32
2023-05-18T19:44:08.069Z,4.88
2023-05-18T19:47:12.639Z,5.60
2023-05-18T19:50:16.880Z,4.95
2023-05-18T19:53:21.277Z,5.47
2023-05-18T19:56:26.229Z,5.43
2023-05-18T19:59:30.418Z,5.00
2023-05-18T20:02:34.421Z,5.85
2023-05-18T20:05:39.302Z,5.88
2023-05-18T20:08:44.375Z,6.05
2023-05-18T20:11:48.502Z,6.15
2023-05-18T20:14:52.565Z,5.78
2023-05-18T20:17:57.084Z,5.85
2023-05-18T20:21:01.274Z,5.90
2023-05-18T20:24:05.503Z,6.03
2023-05-18T20:27:09.801Z,5.97
2023-05-18T20:30:13.937Z,5.85
2023-05-18T20:33:18.404Z,5.97
2023-05-18T20:36:22.611Z,5.93
2023-05-18T20:39:27.598Z,5.00
2023-05-18T20:42:39.463Z,6.63
2023-05-18T20:45:43.818Z,6.90
2023-05-18T20:48:48.172Z,7.00
2023-05-18T20:51:52.639Z,7.03
2023-05-18T20:54:56.814Z,10.52
2023-05-18T20:58:03.490Z,9.05
2023-05-18T21:01:11.733Z,7.03
2023-05-18T21:04:17.283Z,6.07
2023-05-18T21:07:24.889Z,5.90
2023-05-18T21:10:29.470Z,5.70
2023-05-18T21:13:34.024Z,4.90
2023-05-18T21:16:38.433Z,5.35
2023-05-18T21:19:43.370Z,5.15
2023-05-18T21:22:47.787Z,5.90
2023-05-18T21:25:52.334Z,6.45
2023-05-18T21:28:56.357Z,5.93
2023-05-18T21:32:00.586Z,5.90
2023-05-18T21:35:04.958Z,5.97
2023-05-18T21:38:09.348Z,5.72
2023-05-18T21:41:16.169Z,6.63
2023-05-18T21:44:22.854Z,6.03
2023-05-18T21:47:27.316Z,6.40
2023-05-18T21:50:35.491Z,6.63
2023-05-18T21:53:39.883Z,6.20
2023-05-18T21:56:44.076Z,5.75
2023-05-18T21:59:48.156Z,5.78
2023-05-18T22:02:52.384Z,7.05
2023-05-18T22:05:56.585Z,6.38
2023-05-18T22:09:00.640Z,6.07
2023-05-18T22:12:04.869Z,5.93
2023-05-18T22:15:11.107Z,5.82
2023-05-18T22:18:15.966Z,7.28
2023-05-18T22:21:52.547Z,6.13
2023-05-18T22:28:03.798Z,8.60
2023-05-18T22:31:08.157Z,5.75
2023-05-18T22:34:15.157Z,5.82
2023-05-18T22:37:19.105Z,6.03
2023-05-18T22:40:23.692Z,6.53
2023-05-18T22:43:27.710Z,5.13
2023-05-18T22:46:34.908Z,4.32
2023-05-18T22:49:44.083Z,3.55
2023-05-18T22:52:48.499Z,3.38
2023-05-18T22:55:55.718Z,6.00
2023-05-18T22:58:59.826Z,3.10
2023-05-18T23:02:04.632Z,3.83
2023-05-18T23:05:09.185Z,3.60
2023-05-18T23:08:14.921Z,4.35
2023-05-18T23:11:19.274Z,3.10
2023-05-18T23:14:26.607Z,3.80
2023-05-18T23:17:31.318Z,4.03
2023-05-18T23:20:36.671Z,3.83
2023-05-18T23:23:40.487Z,4.40
2023-05-18T23:26:45.712Z,3.33
2023-05-18T23:32:54.072Z,3.03
2023-05-18T23:36:03.510Z,3.53
2023-05-18T23:39:08.098Z,3.50
2023-05-18T23:42:13.721Z,4.35
2023-05-18T23:45:18.025Z,5.13
2023-05-18T23:48:22.493Z,5.20
2023-05-18T23:51:30.558Z,3.60
2023-05-18T23:54:35.799Z,4.95
2023-05-18T23:57:40.804Z,4.18
